createdAt,value
2019-01-05T00:00:05.828Z,6.96
2019-01-05T00:01:05.805Z,6.93
2019-01-05T00:02:05.787Z,6.95
2019-01-05T00:03:05.756Z,6.97
2019-01-05T00:04:05.731Z,6.95
2019-01-05T00:05:05.717Z,6.92
2019-01-05T00:06:05.690Z,6.96
2019-01-05T00:07:05.666Z,6.93
2019-01-05T00:08:05.635Z,6.90
2019-01-05T00:09:05.616Z,6.95
2019-01-05T00:10:05.609Z,6.89
2019-01-05T00:11:05.564Z,6.87
2019-01-05T00:12:05.546Z,6.93
2019-01-05T00:13:05.517Z,6.96
2019-01-05T00:14:05.493Z,6.93
2019-01-05T00:15:05.469Z,7.04
2019-01-05T00:16:05.444Z,6.97
2019-01-05T00:17:05.418Z,7.00
2019-01-05T00:18:05.394Z,6.92
2019-01-05T00:19:05.421Z,6.97
2019-01-05T00:20:05.348Z,6.92
2019-01-05T00:21:05.321Z,6.92
2019-01-05T00:22:05.299Z,7.00
2019-01-05T00:23:05.282Z,6.89
2019-01-05T00:24:05.253Z,6.92
2019-01-05T00:25:05.224Z,6.85
2019-01-05T00:26:05.209Z,6.82
2019-01-05T00:27:05.176Z,6.80
2019-01-05T00:28:05.152Z,6.85
2019-01-05T00:29:05.129Z,6.89
2019-01-05T00:30:05.102Z,6.85
2019-01-05T00:31:05.080Z,6.82
2019-01-05T00:32:05.054Z,6.87
2019-01-05T00:33:05.030Z,6.83
2019-01-05T00:34:05.015Z,6.78
2019-01-05T00:35:04.984Z,6.80
2019-01-05T00:36:04.959Z,6.80
2019-01-05T00:37:04.939Z,6.82
2019-01-05T00:38:04.910Z,6.80
2019-01-05T00:39:04.886Z,6.85
2019-01-05T00:40:04.861Z,6.89
2019-01-05T00:41:04.848Z,6.83
2019-01-05T00:42:04.812Z,6.83
2019-01-05T00:43:04.800Z,6.85
2019-01-05T00:44:04.779Z,6.82
2019-01-05T00:45:04.750Z,6.86
2019-01-05T00:46:04.726Z,6.82
2019-01-05T00:47:04.693Z,6.92
2019-01-05T00:48:04.678Z,6.90
2019-01-05T00:49:04.645Z,6.86
2019-01-05T00:50:04.623Z,6.87
2019-01-05T00:51:04.622Z,6.85
2019-01-05T00:52:04.575Z,6.89
2019-01-05T00:53:04.547Z,6.89
2019-01-05T00:54:04.525Z,6.90
2019-01-05T00:55:04.508Z,7.00
2019-01-05T00:56:04.476Z,6.89
2019-01-05T00:57:04.458Z,6.96
2019-01-05T00:58:04.424Z,6.90
2019-01-05T00:59:04.401Z,6.93
2019-01-05T01:00:04.378Z,6.92
2019-01-05T01:01:04.353Z,6.89
2019-01-05T01:02:04.328Z,6.92
2019-01-05T01:03:04.304Z,6.92
2019-01-05T01:04:04.281Z,6.89
2019-01-05T01:05:04.257Z,7.00
2019-01-05T01:06:04.242Z,7.00
2019-01-05T01:07:04.216Z,6.93
2019-01-05T01:08:04.183Z,6.95
2019-01-05T01:09:04.158Z,6.97
2019-01-05T01:10:04.141Z,7.00
2019-01-05T01:11:04.117Z,6.90
2019-01-05T01:12:04.094Z,7.01
2019-01-05T01:13:04.080Z,6.90
2019-01-05T01:14:04.040Z,7.01
2019-01-05T01:15:04.012Z,6.92
2019-01-05T01:16:03.994Z,6.92
2019-01-05T01:17:03.981Z,6.87
2019-01-05T01:18:03.950Z,7.00
2019-01-05T01:19:03.918Z,6.92
2019-01-05T01:20:03.896Z,6.97
2019-01-05T01:21:03.868Z,6.95
2019-01-05T01:22:03.843Z,6.92
2019-01-05T01:23:03.818Z,6.92
2019-01-05T01:24:03.794Z,6.89
2019-01-05T01:25:03.777Z,6.97
2019-01-05T01:26:03.752Z,6.89
2019-01-05T01:27:03.722Z,6.96
2019-01-05T01:28:03.698Z,7.01
2019-01-05T01:29:03.682Z,6.96
2019-01-05T01:30:03.648Z,6.97
2019-01-05T01:31:03.625Z,6.90
2019-01-05T01:32:03.606Z,6.97
2019-01-05T01:33:03.577Z,7.01
2019-01-05T01:34:03.550Z,6.96
2019-01-05T01:35:03.528Z,7.01
2019-01-05T01:36:03.501Z,7.03
2019-01-05T01:37:03.487Z,6.96
2019-01-05T01:38:03.463Z,6.97
2019-01-05T01:39:03.432Z,7.01
2019-01-05T01:40:03.407Z,7.01
2019-01-05T01:41:03.380Z,7.00
2019-01-05T01:42:03.357Z,7.03
2019-01-05T01:43:03.333Z,7.08
2019-01-05T01:44:03.308Z,7.10
2019-01-05T01:45:03.300Z,7.08
2019-01-05T01:46:03.268Z,7.04
2019-01-05T01:47:03.235Z,7.11
2019-01-05T01:48:03.211Z,7.13
2019-01-05T01:49:03.194Z,7.11
2019-01-05T01:50:03.163Z,7.21
2019-01-05T01:51:03.143Z,7.15
2019-01-05T01:52:03.115Z,7.15
2019-01-05T01:53:03.091Z,7.11
2019-01-05T01:54:03.063Z,7.14
2019-01-05T01:55:03.042Z,7.21
2019-01-05T01:56:03.168Z,7.10
2019-01-05T01:57:02.996Z,7.10
2019-01-05T01:58:02.971Z,7.10
2019-01-05T01:59:02.950Z,7.14
2019-01-05T02:00:02.920Z,7.14
2019-01-05T02:01:02.898Z,7.13
2019-01-05T02:02:02.874Z,7.22
2019-01-05T02:03:05.837Z,7.14
2019-01-05T02:04:02.822Z,7.08
2019-01-05T02:05:02.803Z,7.10
2019-01-05T02:06:02.785Z,7.14
2019-01-05T02:07:02.753Z,7.13
2019-01-05T02:08:02.726Z,7.13
2019-01-05T02:09:02.703Z,7.07
2019-01-05T02:10:02.678Z,7.13
2019-01-05T02:11:02.653Z,7.13
2019-01-05T02:12:02.630Z,7.07
2019-01-05T02:13:02.606Z,7.23
2019-01-05T02:14:02.583Z,7.19
2019-01-05T02:15:02.558Z,7.26
2019-01-05T02:16:02.532Z,7.19
2019-01-05T02:17:02.511Z,7.22
2019-01-05T02:18:02.487Z,7.22
2019-01-05T02:19:02.460Z,7.21
2019-01-05T02:20:02.437Z,7.23
2019-01-05T02:21:02.520Z,7.08
2019-01-05T02:22:02.388Z,7.11
2019-01-05T02:23:02.362Z,7.13
2019-01-05T02:24:02.341Z,7.18
2019-01-05T02:25:02.314Z,7.10
2019-01-05T02:26:02.291Z,7.07
2019-01-05T02:27:02.267Z,7.18
2019-01-05T02:28:02.242Z,7.13
2019-01-05T02:29:02.220Z,7.23
2019-01-05T02:30:02.196Z,7.10
2019-01-05T02:31:02.170Z,7.11
2019-01-05T02:32:02.157Z,7.13
2019-01-05T02:33:02.123Z,7.23
2019-01-05T02:34:02.096Z,7.13
2019-01-05T02:35:02.077Z,7.11
2019-01-05T02:36:02.065Z,7.08
2019-01-05T02:37:02.024Z,7.21
2019-01-05T02:38:02.001Z,7.13
2019-01-05T02:39:01.979Z,7.18
2019-01-05T02:40:01.953Z,7.21
2019-01-05T02:41:01.928Z,7.19
2019-01-05T02:42:01.902Z,7.21
2019-01-05T02:43:01.886Z,7.13
2019-01-05T02:44:01.858Z,7.15
2019-01-05T02:45:01.839Z,7.15
2019-01-05T02:46:01.806Z,7.19
2019-01-05T02:47:01.782Z,7.21
2019-01-05T02:48:01.764Z,7.31
2019-01-05T02:49:01.733Z,7.23
2019-01-05T02:50:01.709Z,7.26
2019-01-05T02:51:01.683Z,7.26
2019-01-05T02:52:01.668Z,7.28
2019-01-05T02:53:01.645Z,7.26
2019-01-05T02:54:01.711Z,7.25
2019-01-05T02:55:01.588Z,7.28
2019-01-05T02:56:01.563Z,7.26
2019-01-05T02:57:01.545Z,7.28
2019-01-05T02:58:01.523Z,7.26
2019-01-05T02:59:01.489Z,7.26
2019-01-05T03:00:01.475Z,7.28
2019-01-05T03:01:01.443Z,7.26
2019-01-05T03:02:01.431Z,7.33
2019-01-05T03:03:01.393Z,7.23
2019-01-05T03:04:01.370Z,7.31
2019-01-05T03:05:01.352Z,7.31
2019-01-05T03:06:01.330Z,7.23
2019-01-05T03:07:01.305Z,7.33
2019-01-05T03:08:01.279Z,7.28
2019-01-05T03:09:01.250Z,7.25
2019-01-05T03:10:01.231Z,7.43
2019-01-05T03:11:01.201Z,7.29
2019-01-05T03:12:01.182Z,7.46
2019-01-05T03:13:01.157Z,7.47
2019-01-05T03:14:01.129Z,7.44
2019-01-05T03:15:01.107Z,7.41
2019-01-05T03:16:01.087Z,7.29
2019-01-05T03:17:01.055Z,7.41
2019-01-05T03:18:01.038Z,7.36
2019-01-05T03:19:01.029Z,7.28
2019-01-05T03:20:00.986Z,7.47
2019-01-05T03:21:00.970Z,7.47
2019-01-05T03:22:00.937Z,7.44
2019-01-05T03:23:00.913Z,7.59
2019-01-05T03:24:00.888Z,7.66
2019-01-05T03:25:00.865Z,7.55
2019-01-05T03:26:00.839Z,7.47
2019-01-05T03:27:00.820Z,7.48
2019-01-05T03:28:00.791Z,7.40
2019-01-05T03:29:00.766Z,7.43
2019-01-05T03:30:00.763Z,7.47
2019-01-05T03:31:00.722Z,7.44
2019-01-05T03:32:00.705Z,7.44
2019-01-05T03:33:00.688Z,7.47
2019-01-05T03:34:00.649Z,7.50
2019-01-05T03:35:00.624Z,7.47
2019-01-05T03:36:00.598Z,7.41
2019-01-05T03:37:00.578Z,7.59
2019-01-05T03:38:00.551Z,7.50
2019-01-05T03:39:00.534Z,7.48
2019-01-05T03:40:00.502Z,7.50
2019-01-05T03:41:00.480Z,7.58
2019-01-05T03:42:00.456Z,7.66
2019-01-05T03:43:00.430Z,7.59
2019-01-05T03:44:00.407Z,7.55
2019-01-05T03:45:00.383Z,7.59
2019-01-05T03:46:00.358Z,7.59
2019-01-05T03:47:00.333Z,7.67
2019-01-05T03:48:00.309Z,7.69
2019-01-05T03:49:00.287Z,7.66
2019-01-05T03:50:00.262Z,7.66
2019-01-05T03:51:00.237Z,7.59
2019-01-05T03:52:00.231Z,7.61
2019-01-05T03:53:00.190Z,7.66
2019-01-05T03:54:00.167Z,7.70
2019-01-05T03:55:00.156Z,7.61
2019-01-05T03:56:00.123Z,7.72
2019-01-05T03:57:00.116Z,7.67
2019-01-05T03:58:00.121Z,7.67
2019-01-05T03:59:00.047Z,7.75
2019-01-05T04:00:00.028Z,7.77
2019-01-05T04:00:59.999Z,7.84
2019-01-05T04:01:59.974Z,7.74
2019-01-05T04:02:59.962Z,7.72
2019-01-05T04:03:59.928Z,7.83
2019-01-05T04:04:59.903Z,7.74
2019-01-05T04:05:59.884Z,7.77
2019-01-05T04:06:59.855Z,7.74
2019-01-05T04:07:59.833Z,7.80
2019-01-05T04:08:59.808Z,7.78
2019-01-05T04:09:59.786Z,7.88
2019-01-05T04:10:59.759Z,7.87
2019-01-05T04:11:59.741Z,7.87
2019-01-05T04:12:59.711Z,7.87
2019-01-05T04:13:59.701Z,7.85
2019-01-05T04:14:59.673Z,7.90
2019-01-05T04:15:59.641Z,7.90
2019-01-05T04:16:59.617Z,7.91
2019-01-05T04:17:59.597Z,7.98
2019-01-05T04:18:59.567Z,7.84
2019-01-05T04:19:59.557Z,7.95
2019-01-05T04:20:59.521Z,7.93
2019-01-05T04:21:59.498Z,7.91
2019-01-05T04:22:59.474Z,7.98
2019-01-05T04:23:59.456Z,7.98
2019-01-05T04:24:59.434Z,7.93
2019-01-05T04:25:59.401Z,7.91
2019-01-05T04:26:59.393Z,7.90
2019-01-05T04:27:59.512Z,8.05
2019-01-05T04:28:59.333Z,8.01
2019-01-05T04:29:59.310Z,8.05
2019-01-05T04:30:59.282Z,8.03
2019-01-05T04:31:59.258Z,8.17
2019-01-05T04:32:59.237Z,8.11
2019-01-05T04:33:59.212Z,8.08
2019-01-05T04:34:59.189Z,8.13
2019-01-05T04:35:59.163Z,8.06
2019-01-05T04:36:59.155Z,8.09
2019-01-05T04:37:59.115Z,8.14
2019-01-05T04:38:59.091Z,8.13
2019-01-05T04:39:59.069Z,8.17
2019-01-05T04:40:59.050Z,8.21
2019-01-05T04:41:59.083Z,8.26
2019-01-05T04:42:58.996Z,8.18
2019-01-05T04:43:58.972Z,8.26
2019-01-05T04:44:58.951Z,8.20
2019-01-05T04:45:58.938Z,8.21
2019-01-05T04:46:58.904Z,8.31
2019-01-05T04:47:58.881Z,8.18
2019-01-05T04:48:58.872Z,8.32
2019-01-05T04:49:58.840Z,8.26
2019-01-05T04:50:58.812Z,8.23
2019-01-05T04:51:58.786Z,8.36
2019-01-05T04:52:58.862Z,8.27
2019-01-05T04:53:58.737Z,8.31
2019-01-05T04:54:58.713Z,8.32
2019-01-05T04:55:58.690Z,8.36
2019-01-05T04:56:58.689Z,8.34
2019-01-05T04:57:58.642Z,8.44
2019-01-05T04:58:58.619Z,8.34
2019-01-05T04:59:58.594Z,8.31
2019-01-05T05:00:58.571Z,8.35
2019-01-05T05:01:58.546Z,8.42
2019-01-05T05:02:58.523Z,8.39
2019-01-05T05:03:58.500Z,8.44
2019-01-05T05:04:58.476Z,8.32
2019-01-05T05:05:58.453Z,8.38
2019-01-05T05:06:58.479Z,8.39
2019-01-05T05:07:58.405Z,8.38
2019-01-05T05:08:58.382Z,8.46
2019-01-05T05:09:58.357Z,8.38
2019-01-05T05:10:58.349Z,8.46
2019-01-05T05:11:58.325Z,8.44
2019-01-05T05:12:58.289Z,8.46
2019-01-05T05:13:58.266Z,8.35
2019-01-05T05:14:58.240Z,8.42
2019-01-05T05:15:58.217Z,8.41
2019-01-05T05:16:58.192Z,8.49
2019-01-05T05:17:58.173Z,8.44
2019-01-05T05:18:58.144Z,8.36
2019-01-05T05:19:58.122Z,8.32
2019-01-05T05:20:58.097Z,8.41
2019-01-05T05:21:58.077Z,8.46
2019-01-05T05:22:58.049Z,8.45
2019-01-05T05:23:58.029Z,8.41
2019-01-05T05:24:58.003Z,8.42
2019-01-05T05:25:57.982Z,8.46
2019-01-05T05:26:57.955Z,8.44
2019-01-05T05:27:57.931Z,8.35
2019-01-05T05:28:57.910Z,8.38
2019-01-05T05:29:57.884Z,8.42
2019-01-05T05:30:57.859Z,8.45
2019-01-05T05:31:57.837Z,8.45
2019-01-05T05:32:57.813Z,8.46
2019-01-05T05:33:57.787Z,8.38
2019-01-05T05:34:57.765Z,8.41
2019-01-05T05:35:57.743Z,8.41
2019-01-05T05:36:57.717Z,8.49
2019-01-05T05:37:57.700Z,8.49
2019-01-05T05:38:57.672Z,8.49
2019-01-05T05:39:57.650Z,8.42
2019-01-05T05:40:57.631Z,8.49
2019-01-05T05:41:57.598Z,8.39
2019-01-05T05:42:57.582Z,8.32
2019-01-05T05:43:57.552Z,8.32
2019-01-05T05:44:57.528Z,8.35
2019-01-05T05:45:57.505Z,8.28
2019-01-05T05:46:57.483Z,8.34
2019-01-05T05:47:57.460Z,8.34
2019-01-05T05:48:57.434Z,8.34
2019-01-05T05:49:57.410Z,8.35
2019-01-05T05:50:57.387Z,8.31
2019-01-05T05:51:57.369Z,8.32
2019-01-05T05:52:57.338Z,8.27
2019-01-05T05:53:57.317Z,8.31
2019-01-05T05:54:57.305Z,8.34
2019-01-05T05:55:57.269Z,8.32
2019-01-05T05:56:57.243Z,8.35
2019-01-05T05:57:57.218Z,8.28
2019-01-05T05:58:57.195Z,8.34
2019-01-05T05:59:57.178Z,8.42
2019-01-05T06:00:57.146Z,8.41
2019-01-05T06:01:57.272Z,8.34
2019-01-05T06:02:57.099Z,8.34
2019-01-05T06:03:57.075Z,8.34
2019-01-05T06:04:57.052Z,8.36
2019-01-05T06:05:57.026Z,8.31
2019-01-05T06:06:57.003Z,8.35
2019-01-05T06:07:56.982Z,8.42
2019-01-05T06:08:56.957Z,8.44
2019-01-05T06:09:56.939Z,8.46
2019-01-05T06:10:56.908Z,8.49
2019-01-05T06:11:56.886Z,8.41
2019-01-05T06:12:56.865Z,8.52
2019-01-05T06:13:56.836Z,8.34
2019-01-05T06:14:56.812Z,8.35
2019-01-05T06:15:56.794Z,8.44
2019-01-05T06:16:56.767Z,8.45
2019-01-05T06:17:56.741Z,8.39
2019-01-05T06:18:56.718Z,8.46
2019-01-05T06:19:56.693Z,8.44
2019-01-05T06:20:56.671Z,8.31
2019-01-05T06:21:56.645Z,8.34
2019-01-05T06:22:56.626Z,8.45
2019-01-05T06:23:56.605Z,8.34
2019-01-05T06:24:56.574Z,8.34
2019-01-05T06:25:56.577Z,8.36
2019-01-05T06:26:56.527Z,8.45
2019-01-05T06:27:56.501Z,8.35
2019-01-05T06:28:56.489Z,8.34
2019-01-05T06:29:56.453Z,8.34
2019-01-05T06:30:56.434Z,8.31
2019-01-05T06:31:56.415Z,8.31
2019-01-05T06:32:56.399Z,8.32
2019-01-05T06:33:56.360Z,8.35
2019-01-05T06:34:56.339Z,8.32
2019-01-05T06:35:56.313Z,8.36
2019-01-05T06:36:56.290Z,8.32
2019-01-05T06:37:56.262Z,8.36
2019-01-05T06:38:56.239Z,8.32
2019-01-05T06:39:56.217Z,8.32
2019-01-05T06:40:56.191Z,8.35
2019-01-05T06:41:56.165Z,8.31
2019-01-05T06:42:56.144Z,8.34
2019-01-05T06:43:56.127Z,8.35
2019-01-05T06:44:56.097Z,8.27
2019-01-05T06:45:56.070Z,8.28
2019-01-05T06:46:56.049Z,8.31
2019-01-05T06:47:56.024Z,8.31
2019-01-05T06:48:55.999Z,8.32
2019-01-05T06:49:55.975Z,8.36
2019-01-05T06:50:55.959Z,8.45
2019-01-05T06:51:55.927Z,8.46
2019-01-05T06:52:55.905Z,8.46
2019-01-05T06:53:55.883Z,8.42
2019-01-05T06:54:55.855Z,8.44
2019-01-05T06:55:55.830Z,8.45
2019-01-05T06:56:55.810Z,8.44
2019-01-05T06:57:56.326Z,8.42
2019-01-05T06:58:55.767Z,8.45
2019-01-05T06:59:55.735Z,8.39
2019-01-05T07:00:55.718Z,8.45
2019-01-05T07:01:55.687Z,8.49
2019-01-05T07:02:55.671Z,8.49
2019-01-05T07:03:55.638Z,8.53
2019-01-05T07:04:55.622Z,8.39
2019-01-05T07:05:55.590Z,8.46
2019-01-05T07:06:55.566Z,8.42
2019-01-05T07:07:55.542Z,8.41
2019-01-05T07:08:55.518Z,8.45
2019-01-05T07:09:55.494Z,8.44
2019-01-05T07:10:55.472Z,8.38
2019-01-05T07:11:55.452Z,8.41
2019-01-05T07:12:55.423Z,8.42
2019-01-05T07:13:55.399Z,8.44
2019-01-05T07:14:55.374Z,8.50
2019-01-05T07:15:55.351Z,8.52
2019-01-05T07:16:55.327Z,8.45
2019-01-05T07:17:55.305Z,8.45
2019-01-05T07:18:55.281Z,8.46
2019-01-05T07:19:55.255Z,8.50
2019-01-05T07:20:55.233Z,8.42
2019-01-05T07:21:55.208Z,8.49
2019-01-05T07:22:55.182Z,8.49
2019-01-05T07:23:55.161Z,8.46
2019-01-05T07:24:55.138Z,8.42
2019-01-05T07:25:55.112Z,8.53
2019-01-05T07:26:55.088Z,8.50
2019-01-05T07:27:55.069Z,8.44
2019-01-05T07:28:55.047Z,8.41
2019-01-05T07:29:55.017Z,8.36
2019-01-05T07:30:55.000Z,8.53
2019-01-05T07:31:54.970Z,8.45
2019-01-05T07:32:54.945Z,8.45
2019-01-05T07:33:54.928Z,8.42
2019-01-05T07:34:54.897Z,8.54
2019-01-05T07:35:54.872Z,8.44
2019-01-05T07:36:54.850Z,8.46
2019-01-05T07:37:54.824Z,8.53
2019-01-05T07:38:54.810Z,8.46
2019-01-05T07:39:54.777Z,8.49
2019-01-05T07:40:54.755Z,8.42
2019-01-05T07:41:54.729Z,8.49
2019-01-05T07:42:54.704Z,8.42
2019-01-05T07:43:54.685Z,8.44
2019-01-05T07:44:54.658Z,8.44
2019-01-05T07:45:54.633Z,8.44
2019-01-05T07:46:54.610Z,8.39
2019-01-05T07:47:54.593Z,8.44
2019-01-05T07:48:54.573Z,8.44
2019-01-05T07:49:54.549Z,8.44
2019-01-05T07:50:54.514Z,8.50
2019-01-05T07:51:54.490Z,8.49
2019-01-05T07:52:54.465Z,8.46
2019-01-05T07:53:54.442Z,8.44
2019-01-05T07:54:54.417Z,8.46
2019-01-05T07:55:54.411Z,8.50
2019-01-05T07:56:54.371Z,8.49
2019-01-05T07:57:54.360Z,8.41
2019-01-05T07:58:54.323Z,8.41
2019-01-05T07:59:54.302Z,8.44
2019-01-05T08:00:54.276Z,8.44
2019-01-05T08:01:54.251Z,8.46
2019-01-05T08:02:54.231Z,8.39
2019-01-05T08:03:54.216Z,8.46
2019-01-05T08:04:54.183Z,8.46
2019-01-05T08:05:54.157Z,8.41
2019-01-05T08:06:54.177Z,8.44
2019-01-05T08:07:54.108Z,8.50
2019-01-05T08:08:54.086Z,8.50
2019-01-05T08:09:54.060Z,8.45
2019-01-05T08:10:54.037Z,8.52
2019-01-05T08:11:54.034Z,8.49
2019-01-05T08:12:53.989Z,8.45
2019-01-05T08:13:53.964Z,8.39
2019-01-05T08:14:53.943Z,8.53
2019-01-05T08:15:53.923Z,8.50
2019-01-05T08:16:53.900Z,8.49
2019-01-05T08:17:53.867Z,8.44
2019-01-05T08:18:53.848Z,8.46
2019-01-05T08:19:53.830Z,8.53
2019-01-05T08:20:53.807Z,8.50
2019-01-05T08:21:53.799Z,8.49
2019-01-05T08:22:53.753Z,8.49
2019-01-05T08:23:53.724Z,8.46
2019-01-05T08:24:53.699Z,8.45
2019-01-05T08:25:53.684Z,8.50
2019-01-05T08:26:53.651Z,8.56
2019-01-05T08:27:53.631Z,8.41
2019-01-05T08:28:53.604Z,8.46
2019-01-05T08:29:53.580Z,8.50
2019-01-05T08:30:53.554Z,8.44
2019-01-05T08:31:53.532Z,8.53
2019-01-05T08:32:53.507Z,8.49
2019-01-05T08:33:53.493Z,8.45
2019-01-05T08:34:53.459Z,8.50
2019-01-05T08:35:53.437Z,8.57
2019-01-05T08:36:53.413Z,8.57
2019-01-05T08:37:53.396Z,8.64
2019-01-05T08:38:53.363Z,8.60
2019-01-05T08:39:53.347Z,8.64
2019-01-05T08:40:53.323Z,8.63
2019-01-05T08:41:53.291Z,8.60
2019-01-05T08:42:53.268Z,8.72
2019-01-05T08:43:53.246Z,8.61
2019-01-05T08:44:53.235Z,8.57
2019-01-05T08:45:53.208Z,8.63
2019-01-05T08:46:53.174Z,8.64
2019-01-05T08:47:53.149Z,8.64
2019-01-05T08:48:53.125Z,8.60
2019-01-05T08:49:53.100Z,8.57
2019-01-05T08:50:53.076Z,8.60
2019-01-05T08:51:53.053Z,8.69
2019-01-05T08:52:53.038Z,8.64
2019-01-05T08:53:53.013Z,8.75
2019-01-05T08:54:52.980Z,8.64
2019-01-05T08:55:56.083Z,8.69
2019-01-05T08:56:52.934Z,8.75
2019-01-05T08:57:52.919Z,8.72
2019-01-05T08:58:52.896Z,8.71
2019-01-05T08:59:52.865Z,8.69
2019-01-05T09:00:52.840Z,8.63
2019-01-05T09:01:52.824Z,8.69
2019-01-05T09:02:52.809Z,8.74
2019-01-05T09:03:52.769Z,8.68
2019-01-05T09:04:52.746Z,8.74
2019-01-05T09:05:52.719Z,8.74
2019-01-05T09:06:52.697Z,8.74
2019-01-05T09:07:52.677Z,8.71
2019-01-05T09:08:52.648Z,8.72
2019-01-05T09:09:52.649Z,8.63
2019-01-05T09:10:52.601Z,8.61
2019-01-05T09:11:52.587Z,8.66
2019-01-05T09:12:52.557Z,8.61
2019-01-05T09:13:52.532Z,8.72
2019-01-05T09:14:52.510Z,8.75
2019-01-05T09:15:52.486Z,8.66
2019-01-05T09:16:52.466Z,8.71
2019-01-05T09:17:52.444Z,8.61
2019-01-05T09:18:52.421Z,8.64
2019-01-05T09:19:52.392Z,8.64
2019-01-05T09:20:52.364Z,8.66
2019-01-05T09:21:52.340Z,8.71
2019-01-05T09:22:52.317Z,8.69
2019-01-05T09:23:52.293Z,8.63
2019-01-05T09:24:52.270Z,8.63
2019-01-05T09:25:52.253Z,8.63
2019-01-05T09:26:52.224Z,8.69
2019-01-05T09:27:52.200Z,8.66
2019-01-05T09:28:52.187Z,8.71
2019-01-05T09:29:52.156Z,8.64
2019-01-05T09:30:52.127Z,8.68
2019-01-05T09:31:52.103Z,8.71
2019-01-05T09:32:52.081Z,8.66
2019-01-05T09:33:52.060Z,8.69
2019-01-05T09:34:52.036Z,8.72
2019-01-05T09:35:52.008Z,8.64
2019-01-05T09:36:51.986Z,8.74
2019-01-05T09:37:51.970Z,8.71
2019-01-05T09:38:51.938Z,8.71
2019-01-05T09:39:51.914Z,8.71
2019-01-05T09:40:51.893Z,8.79
2019-01-05T09:41:51.871Z,8.75
2019-01-05T09:42:51.859Z,8.75
2019-01-05T09:43:51.822Z,8.71
2019-01-05T09:44:51.803Z,8.77
2019-01-05T09:45:51.780Z,8.86
2019-01-05T09:46:51.749Z,8.81
2019-01-05T09:47:51.735Z,8.78
2019-01-05T09:48:51.702Z,8.86
2019-01-05T09:49:51.683Z,8.89
2019-01-05T09:50:51.654Z,8.78
2019-01-05T09:51:51.640Z,8.77
2019-01-05T09:52:51.623Z,8.78
2019-01-05T09:53:51.594Z,8.82
2019-01-05T09:54:51.563Z,8.81
2019-01-05T09:55:51.537Z,8.86
2019-01-05T09:56:51.514Z,8.79
2019-01-05T09:57:51.489Z,8.81
2019-01-05T09:58:51.536Z,8.87
2019-01-05T09:59:51.444Z,8.92
2019-01-05T10:00:51.436Z,8.81
2019-01-05T10:01:51.396Z,8.89
2019-01-05T10:02:51.373Z,8.79
2019-01-05T10:03:51.351Z,8.89
2019-01-05T10:04:51.328Z,8.89
2019-01-05T10:05:51.302Z,8.92
2019-01-05T10:06:51.285Z,8.96
2019-01-05T10:07:51.255Z,8.95
2019-01-05T10:08:51.234Z,8.87
2019-01-05T10:09:51.208Z,8.89
2019-01-05T10:10:51.235Z,8.87
2019-01-05T10:11:51.165Z,8.95
2019-01-05T10:12:51.139Z,9.00
2019-01-05T10:13:51.114Z,8.96
2019-01-05T10:14:51.091Z,8.87
2019-01-05T10:15:51.211Z,8.95
2019-01-05T10:16:51.051Z,8.93
2019-01-05T10:17:51.026Z,8.97
2019-01-05T10:18:50.998Z,8.90
2019-01-05T10:19:50.981Z,8.95
2019-01-05T10:20:50.975Z,8.97
2019-01-05T10:21:50.931Z,8.90
2019-01-05T10:22:50.906Z,8.96
2019-01-05T10:23:50.887Z,8.95
2019-01-05T10:24:50.860Z,8.96
2019-01-05T10:25:50.835Z,9.03
2019-01-05T10:26:50.813Z,8.97
2019-01-05T10:27:50.789Z,8.97
2019-01-05T10:28:50.766Z,8.95
2019-01-05T10:29:50.744Z,9.08
2019-01-05T10:30:50.727Z,9.00
2019-01-05T10:31:50.720Z,8.89
2019-01-05T10:32:50.679Z,8.93
2019-01-05T10:33:50.653Z,8.92
2019-01-05T10:34:50.634Z,8.93
2019-01-05T10:35:51.747Z,8.97
2019-01-05T10:36:50.580Z,9.09
2019-01-05T10:37:50.556Z,9.02
2019-01-05T10:38:50.550Z,9.09
2019-01-05T10:39:50.513Z,9.08
2019-01-05T10:40:50.489Z,9.05
2019-01-05T10:41:50.463Z,9.05
2019-01-05T10:42:50.455Z,9.05
2019-01-05T10:43:50.419Z,8.97
2019-01-05T10:44:50.396Z,9.02
2019-01-05T10:45:50.371Z,9.12
2019-01-05T10:46:50.351Z,9.03
2019-01-05T10:47:50.334Z,9.05
2019-01-05T10:48:50.349Z,8.96
2019-01-05T10:49:50.280Z,8.99
2019-01-05T10:50:50.267Z,9.08
2019-01-05T10:52:50.211Z,9.08
2019-01-05T10:53:50.203Z,9.09
2019-01-05T10:54:50.166Z,9.05
2019-01-05T10:55:50.169Z,9.09
2019-01-05T10:56:50.129Z,9.02
2019-01-05T10:57:50.095Z,9.11
2019-01-05T10:58:50.073Z,9.00
2019-01-05T10:59:50.049Z,9.00
2019-01-05T11:00:50.030Z,9.05
2019-01-05T11:01:50.008Z,9.03
2019-01-05T11:02:49.994Z,9.13
2019-01-05T11:03:49.957Z,9.05
2019-01-05T11:04:49.934Z,9.05
2019-01-05T11:05:49.910Z,8.99
2019-01-05T11:06:49.890Z,9.00
2019-01-05T11:07:49.866Z,9.15
2019-01-05T11:08:49.943Z,9.16
2019-01-05T11:09:49.820Z,9.09
2019-01-05T11:10:49.810Z,9.15
2019-01-05T11:11:49.782Z,9.22
2019-01-05T11:12:49.752Z,9.16
2019-01-05T11:13:49.728Z,9.22
2019-01-05T11:14:49.717Z,9.09
2019-01-05T11:15:49.683Z,9.27
2019-01-05T11:16:49.666Z,9.16
2019-01-05T11:17:49.638Z,9.16
2019-01-05T11:18:49.624Z,9.21
2019-01-05T11:19:49.609Z,9.26
2019-01-05T11:20:49.578Z,9.26
2019-01-05T11:21:49.555Z,9.26
2019-01-05T11:22:49.532Z,9.22
2019-01-05T11:23:49.514Z,9.19
2019-01-05T11:24:49.479Z,9.12
2019-01-05T11:25:49.464Z,9.16
2019-01-05T11:26:49.434Z,9.05
2019-01-05T11:27:49.422Z,9.12
2019-01-05T11:28:49.389Z,9.12
2019-01-05T11:29:49.378Z,9.15
2019-01-05T11:30:49.346Z,9.13
2019-01-05T11:31:49.322Z,9.24
2019-01-05T11:32:49.297Z,9.24
2019-01-05T11:33:49.283Z,9.16
2019-01-05T11:34:49.269Z,9.15
2019-01-05T11:35:49.230Z,9.16
2019-01-05T11:36:49.214Z,9.16
2019-01-05T11:37:49.195Z,9.13
2019-01-05T11:38:49.171Z,9.16
2019-01-05T11:39:49.167Z,9.12
2019-01-05T11:40:49.129Z,9.19
2019-01-05T11:41:49.109Z,9.24
2019-01-05T11:42:49.070Z,9.19
2019-01-05T11:43:49.058Z,9.26
2019-01-05T11:44:49.045Z,9.24
2019-01-05T11:45:49.063Z,9.30
2019-01-05T11:46:49.001Z,9.19
2019-01-05T11:47:48.977Z,9.18
2019-01-05T11:48:48.934Z,9.13
2019-01-05T11:49:48.916Z,9.26
2019-01-05T11:50:48.904Z,9.16
2019-01-05T11:51:48.866Z,9.11
2019-01-05T11:52:48.844Z,9.18
2019-01-05T11:53:48.827Z,9.12
2019-01-05T11:54:48.808Z,9.16
2019-01-05T11:55:48.773Z,9.21
2019-01-05T11:56:48.750Z,9.16
2019-01-05T11:57:48.737Z,9.16
2019-01-05T11:58:48.714Z,9.21
2019-01-05T11:59:48.690Z,9.18
2019-01-05T12:00:48.681Z,9.12
2019-01-05T12:01:48.645Z,9.13
2019-01-05T12:02:48.613Z,9.18
2019-01-05T12:03:48.603Z,9.24
2019-01-05T12:04:48.574Z,9.18
2019-01-05T12:05:48.575Z,9.22
2019-01-05T12:06:48.541Z,9.26
2019-01-05T12:07:48.501Z,9.19
2019-01-05T12:08:48.483Z,9.16
2019-01-05T12:09:48.460Z,9.18
2019-01-05T12:10:48.429Z,9.22
2019-01-05T12:11:48.409Z,9.18
2019-01-05T12:12:48.392Z,9.19
2019-01-05T12:13:48.380Z,9.21
2019-01-05T12:14:48.345Z,9.19
2019-01-05T12:15:48.314Z,9.22
2019-01-05T12:16:48.291Z,9.26
2019-01-05T12:17:48.267Z,9.26
2019-01-05T12:18:48.311Z,9.15
2019-01-05T12:19:48.229Z,9.13
2019-01-05T12:20:48.201Z,9.12
2019-01-05T12:21:48.189Z,9.24
2019-01-05T12:22:48.162Z,9.12
2019-01-05T12:23:48.136Z,9.22
2019-01-05T12:24:48.114Z,9.11
2019-01-05T12:25:48.092Z,9.19
2019-01-05T12:26:48.065Z,9.13
2019-01-05T12:27:48.038Z,9.11
2019-01-05T12:28:48.016Z,9.21
2019-01-05T12:29:47.996Z,9.12
2019-01-05T12:30:48.000Z,9.18
2019-01-05T12:31:48.015Z,9.13
2019-01-05T12:32:47.940Z,9.16
2019-01-05T12:33:47.907Z,9.12
2019-01-05T12:34:47.878Z,9.03
2019-01-05T12:35:47.872Z,9.09
2019-01-05T12:36:47.833Z,9.02
2019-01-05T12:37:47.810Z,9.11
2019-01-05T12:38:47.791Z,9.08
2019-01-05T12:39:47.775Z,9.05
2019-01-05T12:40:47.744Z,9.08
2019-01-05T12:41:47.734Z,9.05
2019-01-05T12:42:47.706Z,9.13
2019-01-05T12:43:47.671Z,9.12
2019-01-05T12:44:47.649Z,9.09
2019-01-05T12:45:47.636Z,9.09
2019-01-05T12:46:47.600Z,9.18
2019-01-05T12:47:47.578Z,9.02
2019-01-05T12:48:47.563Z,9.05
2019-01-05T12:49:47.549Z,9.02
2019-01-05T12:50:47.522Z,9.05
2019-01-05T12:51:47.486Z,9.02
2019-01-05T12:52:47.460Z,9.03
2019-01-05T12:53:47.437Z,9.00
2019-01-05T12:54:47.424Z,9.05
2019-01-05T12:55:47.404Z,9.08
2019-01-05T12:56:47.385Z,9.00
2019-01-05T12:57:47.346Z,9.00
2019-01-05T12:58:47.326Z,9.03
2019-01-05T12:59:47.298Z,9.08
2019-01-05T13:00:47.298Z,9.03
2019-01-05T13:01:47.261Z,9.03
2019-01-05T13:02:47.238Z,9.11
2019-01-05T13:03:47.207Z,9.05
2019-01-05T13:04:47.185Z,9.09
2019-01-05T13:05:47.161Z,9.08
2019-01-05T13:06:47.143Z,9.02
2019-01-05T13:07:47.121Z,9.15
2019-01-05T13:08:47.105Z,9.18
2019-01-05T13:09:47.227Z,9.13
2019-01-05T13:10:47.052Z,9.12
2019-01-05T13:11:47.028Z,9.09
2019-01-05T13:12:47.005Z,9.11
2019-01-05T13:13:46.976Z,9.16
2019-01-05T13:14:46.953Z,9.02
2019-01-05T13:15:46.943Z,9.03
2019-01-05T13:16:46.907Z,9.13
2019-01-05T13:17:46.883Z,9.12
2019-01-05T13:18:46.861Z,9.15